Ajena Airstrip

GH-0002 · Eastern, Ghana

METAR pasados GH-0002 · Ajena Airstrip

A continuación puedes ver los METAR de los últimos días. Selecciona un año para ver los METAR más antiguos, desde el año 2007 en adelante.

15 de abril de 2024

Hora Código Tiempo Temp. Visibilidad Cielo nuboso Viento METAR/SPECI
14:00
V
33 °C 10 km+ - 140° 140° 7 kt METAR DGAA 151400Z 14007KT 090V210 9999 FEW015 FEW028CB 33/24 Q1010 NOSIG
13:00
V
33 °C 10 km+ - 150° 150° 7 kt METAR DGAA 151300Z 15007KT 110V180 9999 FEW034 33/25 Q1010 NOSIG
12:00
V
32 °C 10 km+ - 140° 140° 7 kt METAR DGAA 151200Z 14007KT 100V200 9999 FEW032 32/25 Q1011 NOSIG
11:00
V
32 °C 10 km+ - 150° 150° 5 kt METAR DGAA 151100Z 15005KT 9999 SCT031 32/25 Q1012 NOSIG
10:00
V
31 °C 10 km+ - Var Var 3 kt METAR DGAA 151000Z VRB03KT 9999 SCT027 31/25 Q1012 NOSIG
09:00
M
31 °C 10 km+ 2.900 ft 150° 150° 4 kt METAR DGAA 150900Z 15004KT 120V200 9999 SCT025 BKN029 31/25 Q1012 NOSIG
08:00
V
30 °C 8 km - 250° 250° 3 kt METAR DGAA 150800Z 25003KT 220V290 8000 FEW020 30/26 Q1012 NOSIG
07:00
V
28 °C 8 km - 270° 270° 3 kt METAR DGAA 150700Z 27003KT 8000 FEW020 28/26 Q1011 NOSIG
06:00
M
28 °C 10 km+ 1.900 ft 280° 280° 5 kt METAR DGAA 150600Z 28005KT 9999 BKN019 BKN026 28/26 Q1010 NOSIG
05:00
M
28 °C 10 km+ 2.100 ft 280° 280° 3 kt METAR DGAA 150500Z 28003KT 210V270 9999 BKN021 28/26 Q1010 NOSIG
03:00
V
29 °C 10 km+ - 180° 180° 3 kt METAR DGAA 150300Z 18003KT 9999 FEW018 29/26 Q1009 NOSIG
02:00
V
29 °C 10 km+ - 190° 190° 0 kt METAR DGAA 150200Z 19000KT 9999 SCT015 29/26 Q1010 NOSIG
00:00
V
29 °C 10 km+ - 183° 183° 0 kt METAR DGAA 150000Z 18300KT 9999 FEW014 29/26 Q1011 NOSIG

14 de abril de 2024

Hora Código Tiempo Temp. Visibilidad Cielo nuboso Viento METAR/SPECI
23:00
V
29 °C 10 km+ - 180° 180° 5 kt METAR DGAA 142300Z 18005KT 9999 CAVOK 29/26 Q1011 NOSIG
22:00
V
29 °C 10 km+ - 170° 170° 5 kt METAR DGAA 142200Z 17005KT 9999 FEW014 29/26 Q1011 NOSIG
21:00
V
29 °C 10 km+ - 190° 190° 4 kt METAR DGAA 142100Z 19004KT 9999 FEW016 29/26 Q1011 NOSIG
20:00
V
29 °C 10 km+ - 190° 190° 8 kt METAR DGAA 142000Z 19008KT 9999 FEW016 29/26 Q1010 NOSIG
19:00
V
29 °C 10 km+ - 180° 180° 5 kt METAR DGAA 141900Z 18005KT 9999 FEW017 29/26 Q1010 NOSIG
18:00
M
29 °C 10 km+ 2.300 ft 140° 140° 4 kt METAR DGAA 141800Z 14004KT 110V170 9999 SCT018 BKN023 29/26 Q1009 NOSIG
17:00
V
30 °C 10 km+ - 180° 180° 6 kt METAR DGAA 141700Z 18006KT 9999 FEW024 FEW030CB 30/26 Q1009 NOSIG
16:00
V
30 °C 10 km+ - 110° 110° 5 kt METAR DGAA 141600Z 11005KT 070V170 9999 FEW030CB 30/25 Q1009 NOSIG
15:00
V
31 °C 10 km+ - Var Var 6 kt METAR DGAA 141500Z VRB06KT 9999 SCT038 FEW030CB 31/25 Q1009 NOSIG
14:00
V
32 °C 10 km+ - 040° 040° 9 kt METAR DGAA 141400Z 04009KT 010V070 9999 FEW015 FEW030CB 32/25 Q1009 NOSIG
13:00
V
32 °C 10 km+ - 100° 100° 8 kt METAR DGAA 141300Z 10008KT 060V150 9999 FEW030CB 32/26 Q1010 NOSIG
12:00
V
33 °C 10 km+ - Var Var 4 kt METAR DGAA 141200Z VRB04KT 9999 SCT003 FEW030CB 33/24 Q1011 NOSIG
11:00
V
33 °C 10 km+ - Var Var 4 kt METAR DGAA 141100Z VRB04KT 9999 SCT044 33/23 Q1011 NOSIG
10:00
V
32 °C 10 km+ - 280° 280° 6 kt METAR DGAA 141000Z 28006KT 230V350 9999 FEW031 32/24 Q1012 NOSIG
09:00
V
30 °C 10 km+ - 320° 320° 9 kt METAR DGAA 140900Z 32009KT 250V340 9999 FEW020 30/25 Q1012 NOSIG
08:00
V
29 °C 10 km+ - 300° 300° 11 kt METAR DGAA 140800Z 30011KT 260V320 CAVOK 29/25 Q1012 NOSIG
07:00
V
28 °C 10 km+ - 280° 280° 6 kt METAR DGAA 140700Z 28006KT 9999 FEW014 28/25 Q1011 NOSIG
06:00
V
27 °C 10 km+ - 290° 290° 7 kt METAR DGAA 140600Z 29007KT 9999 SCT014 27/25 Q1010 NOSIG
05:00
V
27 °C 10 km+ - 280° 280° 5 kt METAR DGAA 140500Z 28005KT 9999 SCT016 27/25 Q1009 NOSIG
04:00
V
28 °C 10 km+ - 270° 270° 7 kt METAR DGAA 140400Z 27007KT 230V300 9999 SCT016 28/25 Q1009 NOSIG
03:00
V
28 °C 10 km+ - 270° 270° 7 kt METAR DGAA 140300Z 27007KT 9999 FEW021 28/25 Q1008 NOSIG
02:00
V
28 °C 10 km+ - 260° 260° 4 kt METAR DGAA 140200Z 26004KT 230V290 9999 FEW020 28/25 Q1009 NOSIG
01:00
V
29 °C 10 km+ - 270° 270° 6 kt METAR DGAA 140100Z 27006KT 9999 FEW018 29/25 Q1010 NOSIG
00:00
V
29 °C 10 km+ - 240° 240° 7 kt METAR DGAA 140000Z 24007KT 9999 SCT019 29/26 Q1011 NOSIG

13 de abril de 2024

Hora Código Tiempo Temp. Visibilidad Cielo nuboso Viento METAR/SPECI
23:00
V
26 °C 10 km+ - 220° 220° 7 kt METAR DGAA 132300Z 22007KT 9999 FEW036 26/25 Q1011 NOSIG
22:00
M
30 °C 10 km+ 2.000 ft 210° 210° 8 kt METAR DGAA 132200Z 21008KT 9999 BKN020 30/25 Q1012 NOSIG
21:00
V
30 °C 10 km+ - 200° 200° 9 kt METAR DGAA 132100Z 20009KT 9999 FEW020 30/25 Q1011 NOSIG
20:00
V
30 °C 10 km+ - 210° 210° 11 kt METAR DGAA 132000Z 21011KT 9999 SCT020 30/25 Q1010 NOSIG
18:00
V
30 °C 10 km+ - 190° 190° 14 kt METAR DGAA 131800Z 19014KT 9999 FEW022 FEW030CB 30/25 Q1008 NOSIG
17:00
V
30 °C 10 km+ - 190° 190° 13 kt METAR DGAA 131700Z 19013KT 9999 FEW024 30/25 Q1008 NOSIG
16:00
V
31 °C 10 km+ - 200° 200° 14 kt METAR DGAA 131600Z 20014KT 9999 FEW025 31/25 Q1008 NOSIG
15:00
V
31 °C 10 km+ - 190° 190° 18 kt METAR DGAA 131500Z 19018KT 9999 FEW025 31/25 Q1009 NOSIG
14:00
V
31 °C 10 km+ - 180° 180° 14 kt METAR DGAA 131400Z 18014KT 9999 FEW029 31/25 Q1009 NOSIG
13:00
V
32 °C 10 km+ - 190° 190° 13 kt METAR DGAA 131300Z 19013KT 120V200 9999 FEW029 32/26 Q1010 NOSIG
12:00
V
32 °C 10 km+ - 170° 170° 11 kt METAR DGAA 131200Z 17011KT 130V200 9999 FEW029 32/25 Q1011 NOSIG
11:00
M
33 °C 10 km+ 3.000 ft 190° 190° 10 kt METAR DGAA 131100Z 19010KT 150V250 9999 BKN030 33/26 Q1011 NOSIG
10:00
M
32 °C 10 km+ 2.900 ft 200° 200° 10 kt METAR DGAA 131000Z 20010KT 9999 SCT024 BKN029 32/25 Q1012 NOSIG
09:00
V
30 °C 10 km+ - 230° 230° 8 kt METAR DGAA 130900Z 23008KT 9999 FEW022 30/25 Q1011 NOSIG
08:00
V
30 °C 8 km - 240° 240° 9 kt METAR DGAA 130800Z 24009KT 8000 FEW018 30/25 Q1011 NOSIG
07:00
V
28 °C 8 km - 250° 250° 6 kt METAR DGAA 130700Z 25006KT 8000 FEW012 28/26 Q1010 NOSIG
06:00
V
28 °C 10 km+ - 250° 250° 4 kt METAR DGAA 130600Z 25004KT 9999 FEW015 28/26 Q1010 NOSIG
Cambiar esta información